Time;durP1;ratioP1;P1;durP2;ratioP2;P2;SDS_P1;SDS_P2;PMS_P1;PMS_P2;Temp;Humidity;BMP_temperature;BMP_pressure;BME280_temperature;BME280_humidity;BME280_pressure;Samples;Min_cycle;Max_cycle;Signal;HPM_P1;HPM_P2
2022/10/04 00:00:24;;;;;;;6.68;4.03;;;13.60;92.80;;;;;;5004951;28;20025;-78
2022/10/04 00:02:52;;;;;;;5.47;3.70;;;13.50;92.70;;;;;;5024070;28;20026;-78
2022/10/04 00:05:23;;;;;;;5.60;3.97;;;13.50;92.70;;;;;;5014933;28;20265;-78
2022/10/04 00:07:54;;;;;;;6.05;3.85;;;13.50;92.70;;;;;;5019695;28;20108;-78
2022/10/04 00:10:22;;;;;;;6.25;3.75;;;13.50;92.60;;;;;;5020632;28;20417;-78
2022/10/04 00:12:52;;;;;;;7.00;4.10;;;13.40;92.60;;;;;;5030523;28;20120;-78
2022/10/04 00:15:21;;;;;;;5.50;3.78;;;13.40;92.50;;;;;;5002969;28;20231;-78
2022/10/04 00:18:24;;;;;;;5.50;3.70;;;13.40;92.50;;;;;;5030740;28;20021;-78
2022/10/04 00:20:51;;;;;;;4.97;3.17;;;13.30;92.40;;;;;;5032097;28;20041;-78
2022/10/04 00:23:23;;;;;;;4.88;3.47;;;13.30;92.50;;;;;;5016719;28;20288;-78
2022/10/04 00:26:00;;;;;;;6.72;3.70;;;13.30;92.40;;;;;;5014779;28;20033;-78
2022/10/04 00:28:34;;;;;;;5.72;3.70;;;13.30;92.40;;;;;;5008995;28;20130;-78
2022/10/04 00:31:19;;;;;;;5.50;3.27;;;13.20;92.40;;;;;;5006221;28;20429;-78
2022/10/04 00:33:48;;;;;;;4.22;3.33;;;13.10;92.30;;;;;;5008180;28;20386;-78
2022/10/04 00:36:23;;;;;;;4.75;3.20;;;13.10;92.40;;;;;;5016806;28;20251;-78
2022/10/04 00:39:04;;;;;;;4.97;3.30;;;13.00;92.30;;;;;;4988087;28;20026;-78
2022/10/04 00:41:35;;;;;;;5.55;3.28;;;13.00;92.40;;;;;;5029106;28;20059;-78
2022/10/04 00:44:04;;;;;;;4.53;3.27;;;12.90;92.40;;;;;;5008488;28;20029;-78
2022/10/04 00:46:30;;;;;;;6.28;3.42;;;12.90;92.40;;;;;;5019655;28;20024;-79
2022/10/04 00:49:00;;;;;;;5.43;3.47;;;12.80;92.40;;;;;;5011859;28;20112;-78
2022/10/04 00:52:04;;;;;;;6.93;3.17;;;12.80;92.40;;;;;;4991727;28;20986;-78
2022/10/04 00:54:49;;;;;;;4.60;2.95;;;12.70;92.30;;;;;;5009870;28;20086;-78
2022/10/04 00:57:48;;;;;;;4.60;3.47;;;12.70;92.30;;;;;;5022746;28;20595;-78
2022/10/04 01:00:18;;;;;;;4.70;3.05;;;12.70;92.30;;;;;;4995045;28;20472;-78
2022/10/04 01:02:52;;;;;;;4.80;3.28;;;12.60;92.50;;;;;;5000354;28;20025;-80
2022/10/04 01:05:40;;;;;;;4.88;3.20;;;12.60;92.50;;;;;;5002443;28;20037;-79
2022/10/04 01:08:17;;;;;;;4.43;3.22;;;12.50;92.40;;;;;;5021834;28;20057;-79
2022/10/04 01:10:57;;;;;;;4.40;3.37;;;12.50;92.50;;;;;;5005560;28;20026;-79
2022/10/04 01:13:36;;;;;;;5.78;3.35;;;12.40;92.50;;;;;;5009934;28;20235;-80
2022/10/04 01:16:10;;;;;;;4.95;3.53;;;12.40;92.60;;;;;;4989505;28;20049;-79
2022/10/04 01:18:36;;;;;;;4.22;3.20;;;12.30;92.70;;;;;;5025428;28;20095;-79
2022/10/04 01:21:27;;;;;;;5.32;3.33;;;12.30;92.70;;;;;;5007852;28;20426;-79
2022/10/04 01:23:58;;;;;;;4.33;3.17;;;12.30;92.60;;;;;;5015845;28;20122;-79
2022/10/04 01:26:30;;;;;;;4.45;3.20;;;12.30;92.80;;;;;;5009164;28;20346;-79
2022/10/04 01:29:00;;;;;;;4.97;3.22;;;12.20;92.80;;;;;;5012791;28;20143;-79
2022/10/04 01:31:31;;;;;;;4.72;3.10;;;12.20;92.80;;;;;;5011432;28;20068;-79
2022/10/04 01:33:59;;;;;;;4.22;3.15;;;12.20;92.90;;;;;;5030364;28;20682;-80
2022/10/04 01:36:26;;;;;;;3.90;3.10;;;12.20;92.90;;;;;;4998702;28;20534;-80
2022/10/04 01:38:52;;;;;;;3.58;2.83;;;12.10;92.90;;;;;;5006687;28;20228;-80
2022/10/04 01:41:24;;;;;;;4.82;3.17;;;12.10;92.90;;;;;;5022398;28;20032;-80
2022/10/04 01:43:53;;;;;;;4.68;2.90;;;12.10;92.90;;;;;;5011038;28;20217;-80
2022/10/04 01:46:22;;;;;;;4.00;3.03;;;12.00;92.90;;;;;;5029353;28;20371;-79
2022/10/04 01:48:48;;;;;;;3.63;2.80;;;12.00;93.00;;;;;;5000944;28;20502;-80
2022/10/04 01:51:20;;;;;;;4.47;2.92;;;12.00;92.90;;;;;;5020150;28;20071;-80
2022/10/04 01:53:55;;;;;;;4.03;2.88;;;12.00;92.90;;;;;;5006508;28;20262;-80
2022/10/04 01:56:33;;;;;;;3.60;2.67;;;11.90;92.90;;;;;;5014768;28;20044;-79
2022/10/04 01:59:01;;;;;;;3.40;2.67;;;11.90;92.80;;;;;;5021917;28;20022;-80
2022/10/04 02:01:37;;;;;;;4.30;2.85;;;11.90;92.90;;;;;;5014241;28;20111;-79
2022/10/04 02:04:16;;;;;;;4.13;2.85;;;11.90;92.80;;;;;;5026080;28;20033;-80
2022/10/04 02:06:44;;;;;;;4.68;2.88;;;11.80;92.80;;;;;;5011317;28;20045;-80
2022/10/04 02:09:18;;;;;;;3.92;2.60;;;11.80;92.90;;;;;;5000865;28;20025;-80
2022/10/04 02:11:51;;;;;;;4.77;2.80;;;11.80;92.90;;;;;;4992336;28;20026;-80
2022/10/04 02:14:20;;;;;;;3.30;2.65;;;11.70;92.90;;;;;;5004023;28;20775;-80
2022/10/04 02:16:51;;;;;;;3.30;2.75;;;11.70;93.00;;;;;;5008765;28;20024;-80
2022/10/04 02:19:18;;;;;;;4.38;3.10;;;11.70;93.00;;;;;;5006370;28;20218;-80
2022/10/04 02:21:45;;;;;;;3.67;2.65;;;11.70;93.00;;;;;;5017096;28;20021;-80
2022/10/04 02:24:12;;;;;;;3.70;2.80;;;11.60;93.00;;;;;;4993870;28;20107;-79
2022/10/04 02:26:37;;;;;;;3.78;2.80;;;11.60;93.00;;;;;;5010470;28;20033;-80
2022/10/04 02:29:03;;;;;;;4.80;3.15;;;11.60;93.10;;;;;;5015949;28;20033;-80
2022/10/04 02:34:17;;;;;;;3.25;2.50;;;11.50;93.40;;;;;;5006472;28;20022;-80
2022/10/04 02:36:44;;;;;;;3.72;2.42;;;11.50;93.10;;;;;;5018521;28;20323;-80
2022/10/04 02:39:34;;;;;;;4.15;2.38;;;11.50;93.10;;;;;;4981222;28;20032;-80
2022/10/04 02:42:07;;;;;;;4.22;2.55;;;11.50;93.10;;;;;;4980295;28;20041;-80
2022/10/04 02:44:43;;;;;;;4.33;2.40;;;11.40;93.00;;;;;;4977021;28;20045;-80
2022/10/04 02:47:22;;;;;;;4.10;2.33;;;11.40;93.00;;;;;;5026340;28;20432;-80
2022/10/04 02:50:08;;;;;;;3.85;2.53;;;11.40;93.00;;;;;;4993881;28;20054;-80
2022/10/04 02:52:44;;;;;;;3.53;2.60;;;11.30;92.90;;;;;;5025946;28;20037;-80
2022/10/04 02:55:31;;;;;;;3.20;2.25;;;11.30;93.00;;;;;;4992619;28;20037;-80
2022/10/04 02:57:58;;;;;;;3.20;2.33;;;11.30;92.90;;;;;;5011175;28;20218;-80
2022/10/04 03:00:29;;;;;;;4.30;2.38;;;11.20;93.00;;;;;;5025479;28;20033;-80
2022/10/04 03:03:10;;;;;;;5.78;2.60;;;11.20;93.00;;;;;;5006674;28;20051;-80
2022/10/04 03:05:37;;;;;;;3.85;2.60;;;11.10;92.90;;;;;;4990392;28;20037;-81
2022/10/04 03:08:06;;;;;;;2.80;2.13;;;11.20;93.00;;;;;;5024517;28;20736;-80
2022/10/04 03:10:34;;;;;;;3.33;2.13;;;11.10;92.90;;;;;;4999289;28;20040;-81
2022/10/04 03:13:00;;;;;;;3.33;2.30;;;11.10;93.00;;;;;;5003099;28;20423;-80
2022/10/04 03:15:26;;;;;;;4.32;2.22;;;11.00;93.10;;;;;;5019404;28;20029;-80
2022/10/04 03:17:52;;;;;;;2.88;2.03;;;11.00;93.10;;;;;;5018607;28;20266;-80
2022/10/04 03:20:20;;;;;;;3.33;2.37;;;11.00;93.10;;;;;;5003319;28;20021;-81
2022/10/04 03:22:49;;;;;;;4.97;2.42;;;11.00;93.20;;;;;;5013448;28;20033;-81
2022/10/04 03:25:28;;;;;;;3.72;2.53;;;10.90;93.30;;;;;;5021345;28;20106;-81
2022/10/04 03:28:00;;;;;;;4.00;2.53;;;10.90;93.50;;;;;;5010269;28;20138;-80
2022/10/04 03:30:26;;;;;;;5.78;2.63;;;10.90;93.70;;;;;;4995713;28;20304;-81
2022/10/04 03:32:52;;;;;;;3.80;2.40;;;10.90;94.00;;;;;;5018596;28;20036;-81
2022/10/04 03:35:39;;;;;;;4.28;2.88;;;10.90;94.20;;;;;;5003043;28;20828;-81
2022/10/04 03:38:07;;;;;;;5.05;2.85;;;11.00;94.40;;;;;;5001441;28;20029;-81
2022/10/04 03:40:36;;;;;;;5.30;2.80;;;11.00;94.60;;;;;;4998719;28;20032;-81
2022/10/04 03:43:04;;;;;;;4.50;2.67;;;11.00;94.60;;;;;;5007435;28;20509;-80
2022/10/04 03:45:32;;;;;;;5.32;2.83;;;11.00;94.70;;;;;;5010706;28;20067;-81
2022/10/04 03:48:10;;;;;;;3.95;2.83;;;11.00;94.70;;;;;;5019233;28;20422;-81
2022/10/04 03:50:45;;;;;;;4.07;2.63;;;11.10;94.80;;;;;;5013647;28;20030;-81
2022/10/04 03:53:34;;;;;;;4.00;2.53;;;11.10;94.80;;;;;;5006783;28;20032;-80
2022/10/04 03:56:02;;;;;;;4.67;2.77;;;11.10;94.80;;;;;;5008579;28;20034;-81
2022/10/04 03:58:30;;;;;;;4.43;2.97;;;11.10;94.70;;;;;;5011237;28;20242;-81
2022/10/04 04:01:01;;;;;;;3.75;2.38;;;11.10;94.70;;;;;;5032975;28;20034;-80
2022/10/04 04:03:30;;;;;;;3.92;2.55;;;11.00;94.70;;;;;;5018331;28;20252;-81
2022/10/04 04:05:59;;;;;;;5.13;3.10;;;11.10;94.80;;;;;;5005541;28;20022;-81
2022/10/04 04:08:27;;;;;;;5.77;2.83;;;11.10;94.80;;;;;;5016446;28;20025;-80
2022/10/04 04:10:58;;;;;;;5.15;2.92;;;11.10;94.80;;;;;;5019353;28;20084;-80
2022/10/04 04:13:40;;;;;;;3.88;2.67;;;11.10;94.80;;;;;;5003520;28;20040;-81
2022/10/04 04:16:08;;;;;;;4.43;2.83;;;11.10;94.80;;;;;;5013957;28;20037;-81
2022/10/04 04:18:39;;;;;;;5.10;2.85;;;11.00;94.80;;;;;;4998468;28;20014;-80
2022/10/04 04:21:06;;;;;;;4.50;2.57;;;11.00;94.80;;;;;;5010189;28;20013;-81
2022/10/04 04:23:37;;;;;;;4.50;2.88;;;11.00;94.80;;;;;;5025110;28;20083;-81
2022/10/04 04:26:30;;;;;;;3.78;2.40;;;11.00;94.80;;;;;;5018529;28;20398;-81
2022/10/04 04:29:01;;;;;;;3.90;2.53;;;11.00;94.90;;;;;;4999825;28;20088;-80
2022/10/04 04:31:34;;;;;;;5.88;2.80;;;11.00;94.90;;;;;;5003399;28;20105;-80
2022/10/04 04:34:05;;;;;;;4.87;2.63;;;10.90;94.90;;;;;;5008480;28;20042;-80
2022/10/04 04:36:38;;;;;;;5.03;2.47;;;10.90;94.90;;;;;;5008916;28;20482;-80
2022/10/04 04:41:57;;;;;;;3.97;2.25;;;10.90;94.90;;;;;;5019602;28;20029;-80
2022/10/04 04:44:23;;;;;;;4.47;2.70;;;10.90;94.90;;;;;;5004110;28;20029;-80
2022/10/04 04:46:49;;;;;;;4.68;2.67;;;10.90;95.00;;;;;;4996951;28;20029;-80
2022/10/04 04:49:17;;;;;;;3.63;2.53;;;10.90;95.10;;;;;;4996717;28;20037;-80
2022/10/04 04:51:50;;;;;;;4.10;2.77;;;10.90;95.20;;;;;;4995460;28;20045;-80
2022/10/04 04:54:23;;;;;;;4.25;2.63;;;10.80;95.30;;;;;;5000054;28;20021;-81
2022/10/04 04:56:52;;;;;;;4.28;2.60;;;10.80;95.50;;;;;;5025548;28;20459;-80
2022/10/04 04:59:19;;;;;;;3.65;2.67;;;10.90;95.70;;;;;;4992733;28;20025;-80
2022/10/04 05:01:46;;;;;;;6.93;3.03;;;10.90;95.80;;;;;;5001159;28;20096;-80
2022/10/04 05:04:12;;;;;;;4.40;2.70;;;10.80;95.80;;;;;;4984229;28;20433;-80
2022/10/04 05:06:40;;;;;;;4.70;2.65;;;10.90;95.90;;;;;;5013649;28;20736;-80
2022/10/04 05:09:22;;;;;;;4.33;2.53;;;10.90;96.00;;;;;;4982228;28;20237;-80
2022/10/04 05:11:50;;;;;;;4.65;2.47;;;10.90;96.00;;;;;;5028156;28;20109;-80
2022/10/04 05:14:18;;;;;;;5.88;2.70;;;10.90;96.00;;;;;;4998174;28;21498;-80
2022/10/04 05:16:53;;;;;;;5.00;2.75;;;10.90;96.00;;;;;;5011005;28;20152;-80
2022/10/04 05:19:30;;;;;;;3.95;2.53;;;10.90;96.10;;;;;;5011081;28;20378;-80
2022/10/04 05:22:05;;;;;;;4.00;2.50;;;10.90;96.20;;;;;;4977778;28;20118;-80
2022/10/04 05:24:39;;;;;;;3.58;2.28;;;10.90;96.20;;;;;;4973866;28;20365;-80
2022/10/04 05:27:11;;;;;;;4.45;2.50;;;11.00;96.10;;;;;;5013613;28;20064;-80
2022/10/04 05:29:40;;;;;;;3.63;2.28;;;10.90;96.00;;;;;;4996536;28;20231;-80
2022/10/04 05:32:25;;;;;;;4.07;2.42;;;10.90;95.90;;;;;;4998762;28;20037;-80
2022/10/04 05:34:53;;;;;;;4.47;2.43;;;10.90;95.90;;;;;;5008741;28;20069;-80
2022/10/04 05:37:37;;;;;;;3.97;2.35;;;10.90;95.80;;;;;;4998892;28;20021;-80
2022/10/04 05:40:12;;;;;;;3.28;2.10;;;10.90;95.80;;;;;;4996004;28;20032;-80
2022/10/04 05:42:45;;;;;;;4.30;2.05;;;10.80;95.80;;;;;;5021764;28;20094;-80
2022/10/04 05:45:18;;;;;;;3.22;2.10;;;10.80;95.70;;;;;;5013827;28;20029;-80
2022/10/04 05:47:50;;;;;;;3.43;2.07;;;10.80;95.80;;;;;;4997279;28;20434;-80
2022/10/04 05:50:20;;;;;;;3.85;2.30;;;10.70;95.70;;;;;;5013219;28;20029;-80
2022/10/04 05:52:49;;;;;;;3.67;2.35;;;10.70;95.70;;;;;;4999400;28;20030;-80
2022/10/04 05:55:17;;;;;;;5.07;2.15;;;10.70;95.60;;;;;;4997054;28;20218;-83
2022/10/04 05:58:07;;;;;;;3.60;2.13;;;10.60;95.60;;;;;;5023226;28;20021;-80
2022/10/04 06:00:53;;;;;;;3.57;2.00;;;10.60;95.60;;;;;;4979015;28;20037;-79
2022/10/04 06:03:34;;;;;;;4.20;2.10;;;10.60;95.60;;;;;;4987337;28;20132;-80
2022/10/04 06:06:10;;;;;;;3.67;2.22;;;10.60;95.70;;;;;;5007842;28;20514;-80
2022/10/04 06:09:17;;;;;;;3.17;2.10;;;10.50;95.70;;;;;;4998407;28;20037;-80
2022/10/04 06:12:07;;;;;;;3.42;1.85;;;10.50;95.70;;;;;;4994384;28;20449;-80
2022/10/04 06:14:57;;;;;;;3.57;2.03;;;10.50;95.70;;;;;;5026153;28;20021;-80
2022/10/04 06:17:47;;;;;;;3.75;2.22;;;10.50;95.80;;;;;;5000185;28;20509;-80
2022/10/04 06:20:21;;;;;;;3.33;2.00;;;10.50;95.90;;;;;;4995544;28;20270;-79
2022/10/04 06:22:51;;;;;;;4.38;2.25;;;10.50;95.90;;;;;;5022792;28;20033;-79
2022/10/04 06:25:46;;;;;;;4.60;2.00;;;10.40;95.90;;;;;;5002894;28;20884;-79
2022/10/04 06:28:23;;;;;;;3.40;2.17;;;10.40;96.00;;;;;;4994623;28;20659;-80
2022/10/04 06:31:17;;;;;;;3.35;2.13;;;10.50;96.10;;;;;;5011627;28;20025;-80
2022/10/04 06:33:45;;;;;;;4.90;2.40;;;10.40;96.10;;;;;;4980445;28;20029;-80
2022/10/04 06:36:35;;;;;;;3.92;2.30;;;10.40;96.20;;;;;;5024062;28;20504;-80
2022/10/04 06:39:10;;;;;;;3.22;2.17;;;10.50;96.30;;;;;;5003497;28;20113;-80
2022/10/04 06:41:54;;;;;;;4.13;2.30;;;10.40;96.40;;;;;;5000254;28;20120;-79
2022/10/04 06:44:35;;;;;;;3.97;2.10;;;10.50;96.50;;;;;;4995342;28;20036;-80
2022/10/04 06:47:32;;;;;;;4.25;2.28;;;10.50;96.60;;;;;;5004296;28;20037;-80
2022/10/04 06:50:13;;;;;;;3.47;2.20;;;10.50;96.60;;;;;;5009061;28;20053;-79
2022/10/04 06:52:47;;;;;;;3.55;2.38;;;10.50;96.60;;;;;;4997862;28;20092;-80
2022/10/04 06:55:15;;;;;;;3.60;2.07;;;10.50;96.80;;;;;;5003120;28;20026;-80
2022/10/04 06:58:07;;;;;;;4.20;2.47;;;10.60;96.90;;;;;;4992972;28;20025;-80
2022/10/04 07:00:40;;;;;;;3.70;2.30;;;10.50;97.00;;;;;;5002980;28;20037;-80
2022/10/04 07:03:23;;;;;;;3.50;2.35;;;10.60;97.20;;;;;;4978347;28;20022;-80
2022/10/04 07:06:00;;;;;;;6.38;2.72;;;10.60;97.30;;;;;;5007670;28;20413;-79
2022/10/04 07:09:01;;;;;;;3.53;2.10;;;10.70;97.50;;;;;;5019690;28;20040;-80
2022/10/04 07:12:07;;;;;;;4.22;2.50;;;10.70;97.70;;;;;;5000920;28;20123;-80
2022/10/04 07:14:43;;;;;;;4.07;2.30;;;10.80;98.10;;;;;;4967643;28;20030;-79
2022/10/04 07:17:14;;;;;;;3.53;2.47;;;10.90;99.50;;;;;;5010209;28;20030;-79
2022/10/04 07:19:46;;;;;;;3.60;2.42;;;11.30;99.90;;;;;;4999083;28;20607;-80
2022/10/04 07:22:26;;;;;;;3.40;2.30;;;11.70;99.90;;;;;;5029071;28;20022;-79
2022/10/04 07:25:01;;;;;;;4.72;2.80;;;12.20;99.90;;;;;;5000311;28;20391;-79
2022/10/04 07:31:00;;;;;;;4.45;2.60;;;13.50;99.90;;;;;;4992000;28;20128;-79
2022/10/04 07:33:28;;;;;;;4.65;2.45;;;14.40;99.90;;;;;;5011180;28;20492;-80
2022/10/04 07:36:29;;;;;;;4.30;2.60;;;15.00;99.90;;;;;;5000829;28;20171;-79
2022/10/04 07:39:17;;;;;;;4.57;2.30;;;15.70;99.90;;;;;;5009774;28;20021;-80
2022/10/04 07:41:51;;;;;;;4.45;2.30;;;16.20;99.90;;;;;;5001830;28;20730;-80
2022/10/04 07:44:53;;;;;;;3.67;2.30;;;16.80;99.90;;;;;;5001174;28;20360;-79
2022/10/04 07:47:20;;;;;;;3.05;1.92;;;17.40;99.90;;;;;;5012645;28;20049;-79
2022/10/04 07:49:49;;;;;;;5.27;2.20;;;17.90;99.90;;;;;;4996832;28;20660;-79
2022/10/04 07:52:36;;;;;;;4.40;2.00;;;18.40;99.90;;;;;;5004536;28;20037;-79
2022/10/04 07:55:13;;;;;;;4.05;2.00;;;18.90;99.90;;;;;;5024420;28;20030;-80
2022/10/04 07:58:16;;;;;;;3.45;1.90;;;19.40;99.90;;;;;;5006587;28;20510;-80
2022/10/04 08:00:48;;;;;;;3.25;1.75;;;19.80;97.90;;;;;;5013383;28;20572;-79
2022/10/04 08:03:16;;;;;;;2.57;1.80;;;20.30;98.70;;;;;;4988029;28;20112;-80
2022/10/04 08:05:53;;;;;;;3.20;1.83;;;20.60;99.60;;;;;;5011891;28;20066;-79
2022/10/04 08:08:21;;;;;;;3.67;1.98;;;21.00;97.80;;;;;;4993959;28;20116;-80
2022/10/04 08:11:26;;;;;;;4.32;1.77;;;21.30;98.60;;;;;;5018076;28;20337;-79
2022/10/04 08:14:10;;;;;;;4.57;1.92;;;21.70;95.50;;;;;;5011603;28;20140;-80
2022/10/04 08:16:48;;;;;;;2.93;1.80;;;21.90;94.10;;;;;;4982166;28;20588;-80
2022/10/04 08:19:46;;;;;;;3.47;2.00;;;22.00;95.30;;;;;;5022798;28;20450;-80
2022/10/04 08:22:53;;;;;;;3.65;1.95;;;22.30;93.70;;;;;;5032467;28;20037;-80
2022/10/04 08:25:38;;;;;;;3.00;1.65;;;22.40;93.30;;;;;;4994517;28;20042;-80
2022/10/04 08:31:38;;;;;;;3.97;1.90;;;22.80;94.50;;;;;;4996083;28;20090;-79
2022/10/04 08:34:43;;;;;;;4.18;2.10;;;23.00;95.90;;;;;;5007354;28;20100;-80
2022/10/04 08:37:30;;;;;;;5.38;1.98;;;23.10;93.10;;;;;;5006249;28;20033;-80
2022/10/04 08:40:18;;;;;;;3.38;2.00;;;23.30;93.90;;;;;;4993340;28;20026;-82
2022/10/04 08:43:14;;;;;;;5.05;2.15;;;23.40;95.20;;;;;;5016511;28;21331;-81
2022/10/04 08:45:43;;;;;;;3.23;2.00;;;23.50;93.20;;;;;;4998956;28;20665;-80
2022/10/04 08:48:56;;;;;;;3.15;1.80;;;23.70;95.30;;;;;;5032106;28;20052;-81
2022/10/04 08:51:50;;;;;;;3.58;2.10;;;23.90;93.20;;;;;;5008618;28;20021;-81
2022/10/04 08:54:57;;;;;;;2.83;2.05;;;24.20;94.10;;;;;;4983829;28;20996;-82
2022/10/04 08:57:48;;;;;;;3.10;1.95;;;24.40;93.50;;;;;;5016898;28;21548;-81
2022/10/04 09:00:25;;;;;;;3.63;1.90;;;24.70;94.60;;;;;;5007612;28;20490;-81
2022/10/04 09:03:06;;;;;;;4.28;2.00;;;24.90;94.50;;;;;;5025928;28;20147;-80
2022/10/04 09:05:50;;;;;;;3.10;1.90;;;25.10;94.00;;;;;;5004638;28;20228;-82
2022/10/04 09:08:25;;;;;;;3.85;2.13;;;25.40;96.30;;;;;;4993512;28;20022;-80
2022/10/04 09:11:09;;;;;;;3.67;2.20;;;25.60;92.90;;;;;;4996714;28;20096;-80
2022/10/04 09:13:44;;;;;;;5.00;2.40;;;25.80;95.60;;;;;;5006870;28;20202;-80
2022/10/04 09:16:18;;;;;;;4.40;2.47;;;26.10;92.90;;;;;;5007156;28;20021;-79
2022/10/04 09:19:18;;;;;;;4.03;2.40;;;26.20;95.40;;;;;;5005708;28;20025;-81
2022/10/04 09:21:49;;;;;;;3.88;2.38;;;26.40;91.90;;;;;;5010484;28;20034;-80
2022/10/04 09:24:27;;;;;;;4.35;2.20;;;26.50;93.40;;;;;;5008835;28;20033;-80
2022/10/04 09:27:21;;;;;;;4.27;2.30;;;26.60;92.00;;;;;;4993579;28;20064;-81
2022/10/04 09:30:21;;;;;;;2.95;2.10;;;26.80;90.70;;;;;;4999358;28;20072;-80
2022/10/04 09:33:24;;;;;;;3.55;2.17;;;26.90;91.00;;;;;;4994188;28;20441;-81
2022/10/04 09:36:12;;;;;;;3.67;2.00;;;27.00;90.10;;;;;;4997836;28;20046;-80
2022/10/04 09:39:19;;;;;;;4.05;2.20;;;27.00;90.10;;;;;;5007173;28;20136;-82
2022/10/04 09:42:04;;;;;;;3.23;2.00;;;27.10;90.10;;;;;;5006435;28;20030;-81
2022/10/04 09:44:45;;;;;;;4.68;2.25;;;27.20;93.40;;;;;;4991838;28;20589;-80
2022/10/04 09:47:42;;;;;;;4.15;2.40;;;27.20;93.00;;;;;;5008627;28;20014;-81
2022/10/04 09:50:17;;;;;;;4.78;2.22;;;27.40;91.60;;;;;;4994533;28;20043;-80
2022/10/04 09:52:56;;;;;;;3.90;2.00;;;27.60;92.90;;;;;;5018277;28;20163;-80
2022/10/04 09:55:59;;;;;;;3.87;2.40;;;27.90;96.10;;;;;;5008079;28;20143;-80
2022/10/04 09:58:57;;;;;;;4.20;2.25;;;28.10;91.10;;;;;;4978327;28;20057;-80
2022/10/04 10:02:12;;;;;;;4.00;2.45;;;28.40;92.00;;;;;;5021718;28;20029;-81
2022/10/04 10:04:52;;;;;;;4.70;2.40;;;28.70;90.70;;;;;;4987362;28;20138;-81
2022/10/04 10:07:33;;;;;;;3.40;2.40;;;28.90;93.20;;;;;;5025755;28;20041;-81
2022/10/04 10:13:38;;;;;;;4.60;2.20;;;29.40;91.20;;;;;;4999591;28;20030;-80
2022/10/04 10:16:28;;;;;;;3.42;2.55;;;29.70;93.10;;;;;;5013268;28;20018;-81
2022/10/04 10:18:54;;;;;;;4.13;2.35;;;30.10;89.70;;;;;;5012681;28;20036;-80
2022/10/04 10:21:33;;;;;;;4.68;2.40;;;30.40;94.00;;;;;;4993300;28;20377;-82
2022/10/04 10:24:23;;;;;;;3.43;2.17;;;30.50;91.50;;;;;;4988779;28;20512;-81
2022/10/04 10:27:02;;;;;;;3.10;2.30;;;30.60;89.30;;;;;;5015685;28;20037;-80
2022/10/04 10:29:50;;;;;;;3.47;2.30;;;30.60;88.00;;;;;;4984229;28;20392;-81
2022/10/04 10:32:32;;;;;;;3.15;2.20;;;30.30;81.60;;;;;;5026420;28;20037;-80
2022/10/04 10:35:22;;;;;;;4.47;2.40;;;30.00;82.60;;;;;;5014571;28;20124;-81
2022/10/04 10:37:48;;;;;;;2.77;2.03;;;29.70;81.70;;;;;;5013511;28;20637;-80
2022/10/04 10:40:22;;;;;;;3.70;1.85;;;29.40;86.20;;;;;;5001517;28;20041;-82
2022/10/04 10:43:24;;;;;;;3.00;1.95;;;29.10;83.80;;;;;;5015069;28;20026;-80
2022/10/04 10:46:10;;;;;;;3.97;2.30;;;28.90;80.30;;;;;;4992818;28;20037;-81
2022/10/04 10:48:51;;;;;;;3.03;2.20;;;28.80;83.10;;;;;;5007273;28;20652;-80
2022/10/04 10:51:41;;;;;;;4.15;2.00;;;28.90;88.50;;;;;;5027712;28;20237;-80
2022/10/04 10:54:45;;;;;;;3.40;2.22;;;29.00;84.70;;;;;;4989988;28;20281;-79
2022/10/04 10:57:32;;;;;;;3.47;2.35;;;29.10;85.40;;;;;;5030041;28;20034;-80
2022/10/04 11:00:17;;;;;;;3.53;2.33;;;29.20;82.40;;;;;;4998930;28;20108;-81
2022/10/04 11:02:48;;;;;;;3.45;2.20;;;29.30;90.30;;;;;;4994151;28;20231;-81
2022/10/04 11:05:35;;;;;;;2.88;2.08;;;29.40;90.30;;;;;;5001875;28;20037;-81
2022/10/04 11:08:22;;;;;;;2.83;2.00;;;29.70;84.40;;;;;;5004195;28;20030;-81
2022/10/04 11:10:58;;;;;;;3.33;2.13;;;29.90;91.40;;;;;;4996845;28;20042;-80
2022/10/04 11:13:47;;;;;;;3.77;2.37;;;30.30;91.20;;;;;;5004523;28;20064;-80
2022/10/04 11:16:18;;;;;;;2.75;2.20;;;30.60;85.70;;;;;;4998366;28;20144;-82
2022/10/04 11:19:36;;;;;;;2.42;1.90;;;30.80;87.30;;;;;;4999568;28;20817;-81
2022/10/04 11:22:29;;;;;;;2.78;2.00;;;30.80;78.30;;;;;;4977705;28;20123;-82
2022/10/04 11:25:03;;;;;;;3.38;1.80;;;30.80;75.60;;;;;;5014744;28;20038;-81
2022/10/04 11:27:41;;;;;;;3.13;1.90;;;30.60;82.30;;;;;;5009134;28;20227;-81
2022/10/04 11:30:07;;;;;;;3.20;1.80;;;30.50;81.80;;;;;;5025022;28;20040;-81
2022/10/04 11:32:55;;;;;;;4.28;2.05;;;30.50;83.50;;;;;;4989456;28;20126;-80
2022/10/04 11:35:49;;;;;;;2.97;1.77;;;30.60;79.60;;;;;;4984741;28;20243;-81
2022/10/04 11:38:41;;;;;;;3.10;1.60;;;30.50;73.70;;;;;;4982047;28;22989;-80
2022/10/04 11:41:55;;;;;;;2.13;1.55;;;30.30;74.40;;;;;;5023547;28;20034;-82
2022/10/04 11:45:02;;;;;;;2.10;1.58;;;30.30;78.50;;;;;;4985749;28;20096;-82
2022/10/04 11:48:10;;;;;;;2.35;1.70;;;30.20;74.00;;;;;;4951249;28;21593;-81
2022/10/04 11:50:38;;;;;;;2.72;1.73;;;30.10;73.90;;;;;;4990248;28;20056;-81
2022/10/04 11:53:26;;;;;;;3.20;1.70;;;30.10;81.00;;;;;;4996244;28;20038;-81
2022/10/04 11:56:11;;;;;;;2.83;1.70;;;30.30;81.90;;;;;;4978210;28;20025;-80
2022/10/04 11:58:40;;;;;;;2.60;1.52;;;30.60;82.90;;;;;;4996432;28;20108;-81
2022/10/04 12:01:21;;;;;;;3.38;1.70;;;30.80;80.70;;;;;;5022434;28;20041;-81
2022/10/04 12:04:06;;;;;;;2.63;1.70;;;30.80;72.80;;;;;;5002693;28;20406;-81
2022/10/04 12:06:53;;;;;;;2.13;1.50;;;30.90;73.90;;;;;;4998514;28;20299;-81
2022/10/04 12:09:29;;;;;;;2.38;2.05;;;31.00;73.00;;;;;;5002419;28;20046;-80
2022/10/04 12:15:07;;;;;;;2.58;2.10;;;31.40;74.20;;;;;;5009831;28;20464;-81
2022/10/04 12:18:02;;;;;;;2.78;2.00;;;31.60;75.00;;;;;;5006192;28;20076;-82
2022/10/04 12:20:50;;;;;;;3.53;1.90;;;31.70;72.50;;;;;;5004230;28;20566;-80
2022/10/04 12:23:43;;;;;;;3.38;1.80;;;31.90;73.20;;;;;;5014497;28;20037;-81
2022/10/04 12:26:17;;;;;;;3.60;2.25;;;32.10;73.60;;;;;;4998897;28;20125;-81
2022/10/04 12:29:03;;;;;;;4.18;2.10;;;32.20;72.70;;;;;;5014472;28;20474;-80
2022/10/04 12:31:54;;;;;;;4.38;2.10;;;32.20;71.30;;;;;;5002205;28;20643;-79
2022/10/04 12:34:50;;;;;;;2.70;1.90;;;32.20;69.90;;;;;;4985425;28;20079;-81
2022/10/04 12:37:27;;;;;;;3.05;1.90;;;32.10;65.80;;;;;;5009840;28;20632;-80
2022/10/04 12:40:08;;;;;;;3.90;2.13;;;32.20;70.90;;;;;;5004573;28;20034;-82
2022/10/04 12:42:44;;;;;;;3.00;2.03;;;32.10;72.70;;;;;;5000645;28;20093;-81
2022/10/04 12:46:03;;;;;;;2.53;1.98;;;32.10;68.10;;;;;;5003264;28;20083;-81
2022/10/04 12:49:00;;;;;;;2.70;2.10;;;32.10;65.70;;;;;;4950413;28;20042;-80
2022/10/04 12:51:31;;;;;;;3.20;2.08;;;32.10;63.50;;;;;;4991049;28;20096;-81
2022/10/04 12:54:10;;;;;;;3.38;1.75;;;32.10;72.00;;;;;;5009619;28;20033;-81
2022/10/04 12:56:44;;;;;;;3.30;2.10;;;32.10;72.50;;;;;;5002632;28;20103;-79
2022/10/04 12:59:19;;;;;;;2.75;2.10;;;32.20;69.50;;;;;;5022215;28;20599;-83
2022/10/04 13:02:19;;;;;;;3.73;1.80;;;32.10;70.80;;;;;;4995715;28;20037;-81
2022/10/04 13:05:09;;;;;;;2.72;2.03;;;32.10;64.10;;;;;;5017097;28;20029;-79
2022/10/04 13:07:50;;;;;;;2.70;1.98;;;32.10;65.00;;;;;;5004490;28;20025;-82
2022/10/04 13:10:28;;;;;;;2.63;1.73;;;32.20;65.30;;;;;;5012819;28;20640;-81
2022/10/04 13:12:54;;;;;;;2.20;1.95;;;32.20;63.80;;;;;;4998794;28;20087;-80
2022/10/04 13:15:33;;;;;;;2.87;1.77;;;32.20;70.70;;;;;;5034911;28;20246;-81
2022/10/04 13:18:33;;;;;;;3.03;1.77;;;32.30;70.80;;;;;;5001473;28;20057;-81
2022/10/04 13:21:10;;;;;;;2.00;1.73;;;32.40;65.00;;;;;;5004760;28;20030;-82
2022/10/04 13:23:57;;;;;;;3.00;1.90;;;32.30;65.30;;;;;;5010854;28;20382;-82
2022/10/04 13:26:41;;;;;;;2.92;1.83;;;32.20;64.40;;;;;;5017272;28;20564;-81
2022/10/04 13:29:47;;;;;;;3.58;1.90;;;32.20;65.70;;;;;;5013898;28;20032;-81
2022/10/04 13:32:19;;;;;;;2.50;1.90;;;32.10;65.30;;;;;;5026183;28;20246;-81
2022/10/04 13:34:55;;;;;;;2.88;1.50;;;32.00;65.20;;;;;;5008308;28;20035;-80
2022/10/04 13:37:28;;;;;;;3.97;1.90;;;31.90;63.90;;;;;;4990544;28;20056;-81
2022/10/04 13:40:15;;;;;;;3.10;1.63;;;31.70;66.80;;;;;;5004485;28;20029;-82
2022/10/04 13:43:00;;;;;;;2.22;1.55;;;31.40;65.40;;;;;;5009026;28;20117;-82
2022/10/04 13:45:50;;;;;;;3.67;1.70;;;31.10;64.60;;;;;;5028219;28;20026;-82
2022/10/04 13:48:37;;;;;;;2.90;1.70;;;30.70;61.10;;;;;;5021386;28;20537;-82
2022/10/04 13:51:23;;;;;;;3.50;1.70;;;30.30;61.60;;;;;;5003367;28;20049;-80
2022/10/04 13:56:57;;;;;;;4.18;2.03;;;29.50;62.50;;;;;;4999381;28;20476;-80
2022/10/04 13:59:51;;;;;;;2.55;1.63;;;29.10;61.60;;;;;;4977688;28;20033;-81
2022/10/04 14:02:44;;;;;;;2.40;1.60;;;28.90;62.20;;;;;;5012627;28;20065;-80
2022/10/04 14:05:41;;;;;;;2.47;1.60;;;28.70;63.90;;;;;;5034198;28;20132;-80
2022/10/04 14:08:44;;;;;;;4.40;1.83;;;28.70;64.20;;;;;;5008412;28;20034;-81
2022/10/04 14:11:34;;;;;;;2.85;1.70;;;28.70;64.30;;;;;;5002949;28;20040;-81
2022/10/04 14:14:50;;;;;;;3.25;1.70;;;28.70;65.30;;;;;;5000825;28;20036;-79